createdAt,value
2018-02-07T00:00:45.023Z,1002.94
2018-02-07T00:01:44.992Z,1002.89
2018-02-07T00:02:44.959Z,1002.92
2018-02-07T00:03:44.925Z,1002.91
2018-02-07T00:04:44.891Z,1002.92
2018-02-07T00:05:44.859Z,1002.86
2018-02-07T00:06:44.828Z,1002.86
2018-02-07T00:07:44.794Z,1002.93
2018-02-07T00:08:44.764Z,1002.9
2018-02-07T00:09:44.730Z,1002.9
2018-02-07T00:10:44.697Z,1002.9
2018-02-07T00:11:44.664Z,1002.98
2018-02-07T00:12:44.631Z,1002.95
2018-02-07T00:13:44.599Z,1002.88
2018-02-07T00:14:44.565Z,1002.89
2018-02-07T00:15:44.531Z,1002.9
2018-02-07T00:16:44.504Z,1002.92
2018-02-07T00:17:44.467Z,1002.9
2018-02-07T00:18:44.434Z,1002.88
2018-02-07T00:19:44.401Z,1002.88
2018-02-07T00:20:44.368Z,1002.85
2018-02-07T00:21:44.336Z,1002.92
2018-02-07T00:22:44.303Z,1002.88
2018-02-07T00:23:44.270Z,1002.89
2018-02-07T00:24:44.237Z,1002.92
2018-02-07T00:25:44.205Z,1002.92
2018-02-07T00:26:44.172Z,1002.98
2018-02-07T00:27:44.139Z,1002.91
2018-02-07T00:28:44.107Z,1002.93
2018-02-07T00:29:44.072Z,1002.91
2018-02-07T00:30:44.039Z,1002.95
2018-02-07T00:31:44.007Z,1002.98
2018-02-07T00:32:43.975Z,1002.93
2018-02-07T00:33:43.941Z,1002.93
2018-02-07T00:34:43.908Z,1002.96
2018-02-07T00:35:43.875Z,1002.94
2018-02-07T00:36:43.842Z,1002.93
2018-02-07T00:37:43.808Z,1002.93
2018-02-07T00:38:43.778Z,1002.9
2018-02-07T00:39:43.744Z,1002.91
2018-02-07T00:40:43.709Z,1002.9
2018-02-07T00:41:43.676Z,1002.95
2018-02-07T00:42:43.648Z,1002.97
2018-02-07T00:43:43.612Z,1002.96
2018-02-07T00:44:43.577Z,1003.04
2018-02-07T00:45:43.545Z,1003.03
2018-02-07T00:46:43.512Z,1003.01
2018-02-07T00:47:43.479Z,1003.03
2018-02-07T00:48:43.446Z,1003
2018-02-07T00:49:43.412Z,1002.96
2018-02-07T00:50:43.382Z,1003.03
2018-02-07T00:51:43.346Z,1003.04
2018-02-07T00:52:43.314Z,1003.02
2018-02-07T00:53:43.280Z,1003.05
2018-02-07T00:54:43.248Z,1003.01
2018-02-07T00:55:43.214Z,1003.02
2018-02-07T00:56:43.181Z,1003.01
2018-02-07T00:57:43.148Z,1003.02
2018-02-07T00:58:43.116Z,1003
2018-02-07T00:59:43.083Z,1003.02
2018-02-07T01:00:43.050Z,1003.02
2018-02-07T01:01:43.016Z,1003
2018-02-07T01:02:42.984Z,1003.02
2018-02-07T01:03:42.950Z,1003.1
2018-02-07T01:04:42.918Z,1003.03
2018-02-07T01:05:42.884Z,1003.05
2018-02-07T01:06:42.851Z,1003.03
2018-02-07T01:07:42.818Z,1003.05
2018-02-07T01:08:42.785Z,1003.11
2018-02-07T01:09:42.751Z,1003.08
2018-02-07T01:10:42.719Z,1003.1
2018-02-07T01:11:42.689Z,1003.08
2018-02-07T01:12:42.655Z,1003.07
2018-02-07T01:13:42.623Z,1003.08
2018-02-07T01:14:42.587Z,1003.1
2018-02-07T01:15:42.555Z,1003.09
2018-02-07T01:16:42.521Z,1003.07
2018-02-07T01:17:42.488Z,1003.08
2018-02-07T01:18:42.472Z,1003.07
2018-02-07T01:19:42.424Z,1003.09
2018-02-07T01:20:42.389Z,1003.06
2018-02-07T01:21:42.357Z,1003.07
2018-02-07T01:22:42.323Z,1003.1
2018-02-07T01:23:42.291Z,1003.11
2018-02-07T01:24:42.256Z,1003.1
2018-02-07T01:25:42.225Z,1003.07
2018-02-07T01:26:42.192Z,1003.11
2018-02-07T01:27:42.159Z,1003.1
2018-02-07T01:28:42.125Z,1003.13
2018-02-07T01:29:42.092Z,1003.07
2018-02-07T01:30:42.060Z,1003.13
2018-02-07T01:31:42.025Z,1003.12
2018-02-07T01:32:41.993Z,1003.14
2018-02-07T01:33:41.961Z,1003.16
2018-02-07T01:34:41.927Z,1003.17
2018-02-07T01:35:41.898Z,1003.18
2018-02-07T01:36:41.862Z,1003.23
2018-02-07T01:37:41.827Z,1003.19
2018-02-07T01:38:41.795Z,1003.22
2018-02-07T01:39:41.762Z,1003.22
2018-02-07T01:40:41.728Z,1003.24
2018-02-07T01:41:41.696Z,1003.2
2018-02-07T01:42:41.662Z,1003.18
2018-02-07T01:43:41.629Z,1003.17
2018-02-07T01:44:41.597Z,1003.19
2018-02-07T01:45:41.564Z,1003.21
2018-02-07T01:46:41.529Z,1003.18
2018-02-07T01:47:41.497Z,1003.14
2018-02-07T01:48:41.463Z,1003.17
2018-02-07T01:49:41.430Z,1003.14
2018-02-07T01:50:41.397Z,1003.19
2018-02-07T01:51:41.364Z,1003.23
2018-02-07T01:52:41.331Z,1003.22
2018-02-07T01:53:41.297Z,1003.21
2018-02-07T01:54:41.264Z,1003.23
2018-02-07T01:55:41.233Z,1003.24
2018-02-07T01:56:41.199Z,1003.22
2018-02-07T01:57:41.165Z,1003.19
2018-02-07T01:58:41.134Z,1003.17
2018-02-07T01:59:41.100Z,1003.17
2018-02-07T02:00:41.067Z,1003.2
2018-02-07T02:01:41.033Z,1003.23
2018-02-07T02:02:41.002Z,1003.17
2018-02-07T02:03:40.968Z,1003.2
2018-02-07T02:04:40.935Z,1003.18
2018-02-07T02:05:40.902Z,1003.17
2018-02-07T02:06:40.869Z,1003.16
2018-02-07T02:07:40.836Z,1003.2
2018-02-07T02:08:40.803Z,1003.19
2018-02-07T02:09:40.770Z,1003.18
2018-02-07T02:10:40.738Z,1003.18
2018-02-07T02:11:40.704Z,1003.19
2018-02-07T02:12:40.672Z,1003.19
2018-02-07T02:13:40.646Z,1003.13
2018-02-07T02:14:40.605Z,1003.13
2018-02-07T02:15:40.573Z,1003.09
2018-02-07T02:16:40.540Z,1003.08
2018-02-07T02:17:40.506Z,1003.07
2018-02-07T02:18:40.473Z,1003.06
2018-02-07T02:19:40.441Z,1003.06
2018-02-07T02:20:40.407Z,1003
2018-02-07T02:21:40.375Z,1003.03
2018-02-07T02:22:40.346Z,1003.04
2018-02-07T02:23:40.309Z,1003.06
2018-02-07T02:24:40.277Z,1003.03
2018-02-07T02:25:40.243Z,1003.04
2018-02-07T02:26:40.212Z,1002.99
2018-02-07T02:27:40.177Z,1003.01
2018-02-07T02:28:40.147Z,1003.01
2018-02-07T02:29:40.112Z,1002.99
2018-02-07T02:30:40.080Z,1003.02
2018-02-07T02:31:40.046Z,1003.09
2018-02-07T02:32:40.015Z,1003.08
2018-02-07T02:33:39.981Z,1003.1
2018-02-07T02:34:39.948Z,1003.07
2018-02-07T02:35:39.914Z,1003.08
2018-02-07T02:36:39.882Z,1003.09
2018-02-07T02:37:39.849Z,1003.1
2018-02-07T02:38:39.816Z,1003.08
2018-02-07T02:39:39.783Z,1003.13
2018-02-07T02:40:39.750Z,1003.11
2018-02-07T02:41:39.717Z,1003.1
2018-02-07T02:42:39.683Z,1003.13
2018-02-07T02:43:39.656Z,1003.12
2018-02-07T02:44:39.618Z,1003.12
2018-02-07T02:45:39.586Z,1003.13
2018-02-07T02:46:39.560Z,1003.1
2018-02-07T02:47:39.521Z,1003.11
2018-02-07T02:48:39.488Z,1003.09
2018-02-07T02:49:39.455Z,1003.09
2018-02-07T02:50:39.421Z,1003.09
2018-02-07T02:51:39.388Z,1003.1
2018-02-07T02:52:39.356Z,1003.1
2018-02-07T02:53:39.326Z,1003.13
2018-02-07T02:54:39.296Z,1003.12
2018-02-07T02:55:39.257Z,1003.09
2018-02-07T02:56:39.222Z,1003.09
2018-02-07T02:57:39.190Z,1003.11
2018-02-07T02:58:39.158Z,1003.08
2018-02-07T02:59:39.124Z,1003.07
2018-02-07T03:00:39.091Z,1003.09
2018-02-07T03:01:39.060Z,1003.07
2018-02-07T03:02:39.025Z,1003.06
2018-02-07T03:03:38.992Z,1003.03
2018-02-07T03:04:38.959Z,1003.04
2018-02-07T03:05:38.925Z,1003.01
2018-02-07T03:06:38.894Z,1003.02
2018-02-07T03:07:38.859Z,1003.01
2018-02-07T03:08:38.825Z,1003.01
2018-02-07T03:09:38.793Z,1003
2018-02-07T03:10:38.762Z,1003.01
2018-02-07T03:11:38.726Z,1003.04
2018-02-07T03:12:38.694Z,1003.07
2018-02-07T03:13:38.661Z,1003.06
2018-02-07T03:14:38.626Z,1003.06
2018-02-07T03:15:38.597Z,1003.11
2018-02-07T03:16:38.560Z,1003.14
2018-02-07T03:17:38.628Z,1003.2
2018-02-07T03:18:38.495Z,1003.16
2018-02-07T03:19:38.462Z,1003.22
2018-02-07T03:20:38.429Z,1003.21
2018-02-07T03:21:38.395Z,1003.21
2018-02-07T03:22:38.362Z,1003.22
2018-02-07T03:23:38.331Z,1003.21
2018-02-07T03:24:38.296Z,1003.24
2018-02-07T03:25:38.261Z,1003.18
2018-02-07T03:26:38.228Z,1003.18
2018-02-07T03:27:38.197Z,1003.22
2018-02-07T03:28:38.163Z,1003.21
2018-02-07T03:29:38.130Z,1003.19
2018-02-07T03:30:38.097Z,1003.23
2018-02-07T03:31:38.064Z,1003.23
2018-02-07T03:32:38.030Z,1003.22
2018-02-07T03:33:37.997Z,1003.26
2018-02-07T03:34:37.963Z,1003.22
2018-02-07T03:35:37.931Z,1003.22
2018-02-07T03:36:37.899Z,1003.24
2018-02-07T03:37:37.864Z,1003.22
2018-02-07T03:38:37.830Z,1003.25
2018-02-07T03:39:37.797Z,1003.24
2018-02-07T03:40:37.764Z,1003.24
2018-02-07T03:41:37.731Z,1003.27
2018-02-07T03:42:37.697Z,1003.29
2018-02-07T03:43:37.663Z,1003.23
2018-02-07T03:44:37.630Z,1003.24
2018-02-07T03:45:37.598Z,1003.23
2018-02-07T03:46:37.563Z,1003.27
2018-02-07T03:47:37.530Z,1003.24
2018-02-07T03:48:37.497Z,1003.23
2018-02-07T03:49:37.464Z,1003.23
2018-02-07T03:50:37.432Z,1003.24
2018-02-07T03:51:37.401Z,1003.25
2018-02-07T03:52:37.364Z,1003.25
2018-02-07T03:53:37.331Z,1003.29
2018-02-07T03:54:37.297Z,1003.3
2018-02-07T03:55:37.263Z,1003.28
2018-02-07T03:56:37.233Z,1003.3
2018-02-07T03:57:37.199Z,1003.33
2018-02-07T03:58:37.164Z,1003.32
2018-02-07T03:59:37.131Z,1003.29
2018-02-07T04:00:37.100Z,1003.31
2018-02-07T04:01:37.064Z,1003.32
2018-02-07T04:02:37.032Z,1003.34
2018-02-07T04:03:37.000Z,1003.37
2018-02-07T04:04:36.965Z,1003.37
2018-02-07T04:05:36.932Z,1003.38
2018-02-07T04:06:36.898Z,1003.41
2018-02-07T04:07:36.866Z,1003.35
2018-02-07T04:08:36.833Z,1003.38
2018-02-07T04:09:36.798Z,1003.34
2018-02-07T04:10:36.765Z,1003.31
2018-02-07T04:11:36.732Z,1003.27
2018-02-07T04:12:36.700Z,1003.24
2018-02-07T04:13:36.665Z,1003.25
2018-02-07T04:14:36.633Z,1003.25
2018-02-07T04:15:36.600Z,1003.28
2018-02-07T04:16:36.565Z,1003.24
2018-02-07T04:17:36.532Z,1003.24
2018-02-07T04:18:36.499Z,1003.24
2018-02-07T04:19:36.469Z,1003.26
2018-02-07T04:20:36.433Z,1003.26
2018-02-07T04:21:36.400Z,1003.25
2018-02-07T04:22:36.368Z,1003.3
2018-02-07T04:23:36.333Z,1003.29
2018-02-07T04:24:36.304Z,1003.3
2018-02-07T04:25:36.267Z,1003.31
2018-02-07T04:26:36.234Z,1003.34
2018-02-07T04:27:36.204Z,1003.35
2018-02-07T04:28:36.168Z,1003.37
2018-02-07T04:29:36.135Z,1003.35
2018-02-07T04:30:36.101Z,1003.34
2018-02-07T04:31:36.068Z,1003.36
2018-02-07T04:32:36.036Z,1003.36
2018-02-07T04:33:36.002Z,1003.33
2018-02-07T04:34:35.967Z,1003.3
2018-02-07T04:35:35.934Z,1003.32
2018-02-07T04:36:35.902Z,1003.35
2018-02-07T04:37:35.869Z,1003.35
2018-02-07T04:38:35.834Z,1003.36
2018-02-07T04:39:35.802Z,1003.38
2018-02-07T04:40:35.768Z,1003.37
2018-02-07T04:41:35.737Z,1003.39
2018-02-07T04:42:35.702Z,1003.36
2018-02-07T04:43:35.669Z,1003.38
2018-02-07T04:44:35.635Z,1003.39
2018-02-07T04:45:35.601Z,1003.36
2018-02-07T04:46:35.569Z,1003.33
2018-02-07T04:47:35.536Z,1003.34
2018-02-07T04:48:35.502Z,1003.38
2018-02-07T04:49:35.468Z,1003.34
2018-02-07T04:50:35.436Z,1003.34
2018-02-07T04:51:35.403Z,1003.34
2018-02-07T04:52:35.376Z,1003.36
2018-02-07T04:53:35.335Z,1003.38
2018-02-07T04:54:35.303Z,1003.41
2018-02-07T04:55:35.269Z,1003.39
2018-02-07T04:56:35.236Z,1003.38
2018-02-07T04:57:35.203Z,1003.4
2018-02-07T04:58:35.170Z,1003.37
2018-02-07T04:59:35.137Z,1003.43
2018-02-07T05:00:35.103Z,1003.39
2018-02-07T05:01:35.070Z,1003.4
2018-02-07T05:02:35.040Z,1003.4
2018-02-07T05:03:35.004Z,1003.4
2018-02-07T05:04:34.970Z,1003.42
2018-02-07T05:05:34.936Z,1003.43
2018-02-07T05:06:34.904Z,1003.41
2018-02-07T05:07:34.870Z,1003.41
2018-02-07T05:08:34.838Z,1003.41
2018-02-07T05:09:34.804Z,1003.46
2018-02-07T05:10:34.770Z,1003.39
2018-02-07T05:11:34.737Z,1003.43
2018-02-07T05:12:34.743Z,1003.4
2018-02-07T05:13:34.671Z,1003.42
2018-02-07T05:14:34.637Z,1003.42
2018-02-07T05:15:34.602Z,1003.38
2018-02-07T05:16:34.570Z,1003.4
2018-02-07T05:17:34.537Z,1003.37
2018-02-07T05:18:34.504Z,1003.41
2018-02-07T05:19:34.475Z,1003.41
2018-02-07T05:20:34.436Z,1003.4
2018-02-07T05:21:34.403Z,1003.41
2018-02-07T05:22:34.370Z,1003.38
2018-02-07T05:23:34.336Z,1003.4
2018-02-07T05:24:34.304Z,1003.42
2018-02-07T05:25:34.268Z,1003.44
2018-02-07T05:26:34.237Z,1003.46
2018-02-07T05:27:34.252Z,1003.47
2018-02-07T05:28:34.171Z,1003.45
2018-02-07T05:29:34.137Z,1003.46
2018-02-07T05:30:34.104Z,1003.48
2018-02-07T05:31:34.071Z,1003.49
2018-02-07T05:32:34.036Z,1003.54
2018-02-07T05:33:34.038Z,1003.51
2018-02-07T05:34:33.968Z,1003.5
2018-02-07T05:35:33.936Z,1003.48
2018-02-07T05:36:33.901Z,1003.52
2018-02-07T05:37:33.869Z,1003.49
2018-02-07T05:38:33.837Z,1003.48
2018-02-07T05:39:33.802Z,1003.47
2018-02-07T05:40:33.768Z,1003.49
2018-02-07T05:41:33.733Z,1003.51
2018-02-07T05:42:33.702Z,1003.55
2018-02-07T05:43:33.669Z,1003.55
2018-02-07T05:44:33.632Z,1003.55
2018-02-07T05:45:33.598Z,1003.52
2018-02-07T05:46:33.566Z,1003.56
2018-02-07T05:47:33.531Z,1003.56
2018-02-07T05:48:33.498Z,1003.53
2018-02-07T05:49:33.464Z,1003.54
2018-02-07T05:50:33.430Z,1003.51
2018-02-07T05:51:33.396Z,1003.55
2018-02-07T05:52:33.363Z,1003.58
2018-02-07T05:53:33.329Z,1003.54
2018-02-07T05:54:33.295Z,1003.55
2018-02-07T05:55:33.261Z,1003.6
2018-02-07T05:56:33.228Z,1003.61
2018-02-07T05:57:33.194Z,1003.63
2018-02-07T05:58:33.160Z,1003.64
2018-02-07T05:59:33.127Z,1003.61
2018-02-07T06:00:33.093Z,1003.66
2018-02-07T06:01:33.060Z,1003.65
2018-02-07T06:02:33.025Z,1003.64
2018-02-07T06:03:32.992Z,1003.6
2018-02-07T06:04:32.958Z,1003.6
2018-02-07T06:05:32.924Z,1003.64
2018-02-07T06:06:32.890Z,1003.6
2018-02-07T06:07:32.856Z,1003.61
2018-02-07T06:08:32.826Z,1003.64
2018-02-07T06:09:32.787Z,1003.66
2018-02-07T06:10:32.754Z,1003.67
2018-02-07T06:11:32.720Z,1003.72
2018-02-07T06:12:32.686Z,1003.69
2018-02-07T06:13:32.651Z,1003.69
2018-02-07T06:14:32.662Z,1003.67
2018-02-07T06:15:32.587Z,1003.67
2018-02-07T06:16:32.549Z,1003.7
2018-02-07T06:17:32.517Z,1003.72
2018-02-07T06:18:32.482Z,1003.7
2018-02-07T06:19:32.448Z,1003.73
2018-02-07T06:20:32.415Z,1003.7
2018-02-07T06:21:32.380Z,1003.71
2018-02-07T06:22:32.347Z,1003.75
2018-02-07T06:23:32.312Z,1003.77
2018-02-07T06:24:32.279Z,1003.78
2018-02-07T06:25:32.246Z,1003.77
2018-02-07T06:26:32.213Z,1003.74
2018-02-07T06:27:32.176Z,1003.78
2018-02-07T06:28:32.144Z,1003.72
2018-02-07T06:29:32.110Z,1003.74
2018-02-07T06:30:32.078Z,1003.75
2018-02-07T06:31:32.042Z,1003.74
2018-02-07T06:32:32.012Z,1003.75
2018-02-07T06:33:31.975Z,1003.81
2018-02-07T06:34:31.941Z,1003.79
2018-02-07T06:35:31.907Z,1003.85
2018-02-07T06:36:31.873Z,1003.75
2018-02-07T06:37:31.839Z,1003.78
2018-02-07T06:38:31.804Z,1003.78
2018-02-07T06:39:31.771Z,1003.79
2018-02-07T06:40:31.737Z,1003.79
2018-02-07T06:41:31.703Z,1003.78
2018-02-07T06:42:31.668Z,1003.81
2018-02-07T06:43:31.635Z,1003.78
2018-02-07T06:44:31.601Z,1003.85
2018-02-07T06:45:31.568Z,1003.89
2018-02-07T06:46:31.533Z,1003.87
2018-02-07T06:47:31.500Z,1003.88
2018-02-07T06:48:31.465Z,1003.92
2018-02-07T06:49:31.431Z,1003.92
2018-02-07T06:50:31.397Z,1003.95
2018-02-07T06:51:31.364Z,1003.94
2018-02-07T06:52:31.353Z,1003.93
2018-02-07T06:53:31.295Z,1003.89
2018-02-07T06:54:31.261Z,1003.95
2018-02-07T06:55:31.233Z,1003.98
2018-02-07T06:56:31.195Z,1003.97
2018-02-07T06:57:31.160Z,1003.91
2018-02-07T06:58:31.125Z,1003.96
2018-02-07T06:59:31.092Z,1003.96
2018-02-07T07:00:31.150Z,1003.97
2018-02-07T07:01:31.125Z,1004.02
2018-02-07T07:02:30.992Z,1004.03
2018-02-07T07:03:30.957Z,1004.07
2018-02-07T07:04:30.922Z,1004.07
2018-02-07T07:05:30.889Z,1004.09
2018-02-07T07:06:30.854Z,1004.09
2018-02-07T07:07:30.821Z,1004.09
2018-02-07T07:08:30.787Z,1004.11
2018-02-07T07:09:30.755Z,1004.08
2018-02-07T07:10:30.719Z,1004.1
2018-02-07T07:11:30.685Z,1004.14
2018-02-07T07:12:30.649Z,1004.14
2018-02-07T07:13:30.617Z,1004.11
2018-02-07T07:14:30.582Z,1004.1
2018-02-07T07:15:30.548Z,1004.11
2018-02-07T07:16:30.516Z,1004.11
2018-02-07T07:17:30.481Z,1004.12
2018-02-07T07:18:30.446Z,1004.15
2018-02-07T07:19:30.413Z,1004.18
2018-02-07T07:20:30.379Z,1004.23
2018-02-07T07:21:30.345Z,1004.25
2018-02-07T07:22:30.311Z,1004.29
2018-02-07T07:23:30.277Z,1004.29
2018-02-07T07:24:30.242Z,1004.28
2018-02-07T07:25:30.209Z,1004.35
2018-02-07T07:26:30.175Z,1004.32
2018-02-07T07:27:30.142Z,1004.37
2018-02-07T07:28:30.114Z,1004.4
2018-02-07T07:29:30.075Z,1004.4
2018-02-07T07:30:30.042Z,1004.46
2018-02-07T07:31:30.007Z,1004.43
2018-02-07T07:32:29.976Z,1004.4
2018-02-07T07:33:29.937Z,1004.39
2018-02-07T07:34:29.906Z,1004.37
2018-02-07T07:35:29.872Z,1004.34
2018-02-07T07:36:29.838Z,1004.38
2018-02-07T07:37:29.803Z,1004.35
2018-02-07T07:38:29.769Z,1004.33
2018-02-07T07:39:29.736Z,1004.37
2018-02-07T07:40:29.703Z,1004.34
2018-02-07T07:41:29.668Z,1004.34
2018-02-07T07:42:29.638Z,1004.32
2018-02-07T07:43:29.600Z,1004.35
2018-02-07T07:44:29.566Z,1004.39
2018-02-07T07:45:29.533Z,1004.41
2018-02-07T07:46:29.498Z,1004.42
2018-02-07T07:47:29.465Z,1004.44
2018-02-07T07:48:29.434Z,1004.39
2018-02-07T07:49:29.398Z,1004.44
2018-02-07T07:50:29.365Z,1004.42
2018-02-07T07:51:29.330Z,1004.4
2018-02-07T07:52:29.296Z,1004.4
2018-02-07T07:53:29.264Z,1004.4
2018-02-07T07:54:29.230Z,1004.39
2018-02-07T07:55:29.195Z,1004.43
2018-02-07T07:56:29.163Z,1004.42
2018-02-07T07:57:29.130Z,1004.46
2018-02-07T07:58:29.097Z,1004.47
2018-02-07T07:59:29.061Z,1004.51
2018-02-07T08:00:29.031Z,1004.49
2018-02-07T08:01:28.995Z,1004.48
2018-02-07T08:02:28.962Z,1004.49
2018-02-07T08:03:28.928Z,1004.49
2018-02-07T08:04:28.895Z,1004.5
2018-02-07T08:05:28.862Z,1004.51
2018-02-07T08:06:28.826Z,1004.51
2018-02-07T08:07:28.793Z,1004.49
2018-02-07T08:08:28.760Z,1004.5
2018-02-07T08:09:28.729Z,1004.54
2018-02-07T08:10:28.692Z,1004.52
2018-02-07T08:11:28.659Z,1004.56
2018-02-07T08:12:28.626Z,1004.61
2018-02-07T08:13:28.592Z,1004.64
2018-02-07T08:14:28.559Z,1004.62
2018-02-07T08:15:28.526Z,1004.69
2018-02-07T08:16:28.493Z,1004.62
2018-02-07T08:17:28.458Z,1004.61
2018-02-07T08:18:28.426Z,1004.65
2018-02-07T08:19:28.391Z,1004.64
2018-02-07T08:20:28.360Z,1004.64
2018-02-07T08:21:28.324Z,1004.69
2018-02-07T08:22:28.292Z,1004.66
2018-02-07T08:23:28.259Z,1004.66
2018-02-07T08:24:28.261Z,1004.66
2018-02-07T08:25:28.192Z,1004.67
2018-02-07T08:26:28.158Z,1004.63
2018-02-07T08:27:28.128Z,1004.68
2018-02-07T08:28:28.092Z,1004.64
2018-02-07T08:29:28.058Z,1004.66
2018-02-07T08:30:28.027Z,1004.68
2018-02-07T08:31:27.992Z,1004.73
2018-02-07T08:32:27.959Z,1004.73
2018-02-07T08:33:27.926Z,1004.73
2018-02-07T08:34:27.893Z,1004.74
2018-02-07T08:35:27.858Z,1004.73
2018-02-07T08:36:27.826Z,1004.73
2018-02-07T08:37:27.794Z,1004.76
2018-02-07T08:38:27.760Z,1004.75
2018-02-07T08:39:27.726Z,1004.76
2018-02-07T08:40:27.694Z,1004.81
2018-02-07T08:41:27.664Z,1004.75
2018-02-07T08:42:27.628Z,1004.74
2018-02-07T08:43:27.593Z,1004.73
2018-02-07T08:44:27.562Z,1004.72
2018-02-07T08:45:27.529Z,1004.71
2018-02-07T08:46:27.495Z,1004.8
2018-02-07T08:47:27.462Z,1004.76
2018-02-07T08:48:27.525Z,1004.8
2018-02-07T08:49:27.396Z,1004.79
2018-02-07T08:50:27.371Z,1004.85
2018-02-07T08:51:27.330Z,1004.83
2018-02-07T08:52:27.296Z,1004.85
2018-02-07T08:53:27.265Z,1004.8
2018-02-07T08:54:27.231Z,1004.85
2018-02-07T08:55:27.201Z,1004.84
2018-02-07T08:56:27.165Z,1004.83
2018-02-07T08:57:27.131Z,1004.85
2018-02-07T08:58:27.155Z,1004.89
2018-02-07T08:59:27.066Z,1004.9
2018-02-07T09:00:27.035Z,1004.94
2018-02-07T09:01:27.001Z,1004.93
2018-02-07T09:02:26.972Z,1004.97
2018-02-07T09:03:26.935Z,1005
2018-02-07T09:04:26.904Z,1005.03
2018-02-07T09:05:26.871Z,1005.03
2018-02-07T09:06:26.837Z,1005.03
2018-02-07T09:07:26.806Z,1005.04
2018-02-07T09:08:26.772Z,1005.03
2018-02-07T09:09:26.741Z,1005.04
2018-02-07T09:10:26.707Z,1005.03
2018-02-07T09:11:26.674Z,1005.04
2018-02-07T09:12:26.641Z,1005.08
2018-02-07T09:13:26.608Z,1005.11
2018-02-07T09:14:26.575Z,1005.1
2018-02-07T09:15:26.543Z,1005.07
2018-02-07T09:16:26.509Z,1005.1
2018-02-07T09:17:26.476Z,1005.11
2018-02-07T09:18:26.446Z,1005.15
2018-02-07T09:19:26.411Z,1005.1
2018-02-07T09:20:26.378Z,1005.17
2018-02-07T09:21:26.368Z,1005.15
2018-02-07T09:22:26.314Z,1005.21
2018-02-07T09:23:26.388Z,1005.2
2018-02-07T09:24:26.553Z,1005.24
2018-02-07T09:25:26.216Z,1005.25
2018-02-07T09:26:26.182Z,1005.27
2018-02-07T09:27:26.151Z,1005.29
2018-02-07T09:28:26.117Z,1005.26
2018-02-07T09:29:26.086Z,1005.26
2018-02-07T09:30:26.052Z,1005.22
2018-02-07T09:31:26.021Z,1005.22
2018-02-07T09:32:25.988Z,1005.26
2018-02-07T09:33:25.957Z,1005.22
2018-02-07T09:34:25.922Z,1005.24
2018-02-07T09:35:25.891Z,1005.3
2018-02-07T09:36:25.858Z,1005.33
2018-02-07T09:37:25.824Z,1005.4
2018-02-07T09:38:25.799Z,1005.49
2018-02-07T09:39:25.760Z,1005.47
2018-02-07T09:40:25.729Z,1005.44
2018-02-07T09:41:25.696Z,1005.48
2018-02-07T09:42:25.665Z,1005.5
2018-02-07T09:43:25.633Z,1005.5
2018-02-07T09:44:25.599Z,1005.46
2018-02-07T09:45:25.567Z,1005.54
2018-02-07T09:46:25.534Z,1005.57
2018-02-07T09:47:25.504Z,1005.53
2018-02-07T09:48:25.471Z,1005.53
2018-02-07T09:49:25.437Z,1005.58
2018-02-07T09:50:25.409Z,1005.56
2018-02-07T09:51:25.374Z,1005.53
2018-02-07T09:52:25.341Z,1005.49
2018-02-07T09:53:25.440Z,1005.55
2018-02-07T09:54:25.277Z,1005.5
2018-02-07T09:55:25.245Z,1005.51
2018-02-07T09:56:25.212Z,1005.48
2018-02-07T09:57:25.179Z,1005.53
2018-02-07T09:58:25.147Z,1005.49
2018-02-07T09:59:25.115Z,1005.48
2018-02-07T10:00:25.083Z,1005.53
2018-02-07T10:01:25.052Z,1005.5
2018-02-07T10:02:25.020Z,1005.45
2018-02-07T10:03:24.986Z,1005.53
2018-02-07T10:04:24.954Z,1005.48
2018-02-07T10:05:24.923Z,1005.55
2018-02-07T10:06:24.890Z,1005.54
2018-02-07T10:07:24.857Z,1005.58
2018-02-07T10:08:24.824Z,1005.55
2018-02-07T10:09:24.793Z,1005.6
2018-02-07T10:10:24.760Z,1005.61
2018-02-07T10:11:24.727Z,1005.66
2018-02-07T10:12:24.696Z,1005.63
2018-02-07T10:13:24.670Z,1005.62
2018-02-07T10:14:24.631Z,1005.56
2018-02-07T10:15:24.600Z,1005.56
2018-02-07T10:16:24.568Z,1005.58
2018-02-07T10:17:24.769Z,1005.61
2018-02-07T10:18:24.502Z,1005.64
2018-02-07T10:19:24.471Z,1005.64
2018-02-07T10:20:24.440Z,1005.65
2018-02-07T10:21:24.406Z,1005.66
2018-02-07T10:22:24.375Z,1005.67
2018-02-07T10:23:24.342Z,1005.67
2018-02-07T10:24:24.314Z,1005.7
2018-02-07T10:25:24.279Z,1005.73
2018-02-07T10:26:24.245Z,1005.71
2018-02-07T10:27:24.214Z,1005.72
2018-02-07T10:28:24.187Z,1005.72
2018-02-07T10:29:24.149Z,1005.71
2018-02-07T10:30:24.117Z,1005.7
2018-02-07T10:31:24.087Z,1005.7
2018-02-07T10:32:24.052Z,1005.7
2018-02-07T10:33:24.021Z,1005.67
2018-02-07T10:34:23.993Z,1005.7
2018-02-07T10:35:23.957Z,1005.7
2018-02-07T10:36:23.926Z,1005.7
2018-02-07T10:37:23.894Z,1005.66
2018-02-07T10:38:23.861Z,1005.71
2018-02-07T10:39:23.829Z,1005.74
2018-02-07T10:40:23.799Z,1005.69
2018-02-07T10:41:23.766Z,1005.66
2018-02-07T10:42:23.736Z,1005.63
2018-02-07T10:43:23.759Z,1005.67
2018-02-07T10:44:23.671Z,1005.65
2018-02-07T10:45:23.640Z,1005.65
2018-02-07T10:46:23.607Z,1005.62
2018-02-07T10:47:23.574Z,1005.63
2018-02-07T10:48:23.543Z,1005.68
2018-02-07T10:49:23.510Z,1005.61
2018-02-07T10:50:23.478Z,1005.56
2018-02-07T10:51:23.446Z,1005.58
2018-02-07T10:52:23.414Z,1005.59
2018-02-07T10:53:23.383Z,1005.62
2018-02-07T10:54:23.350Z,1005.64
2018-02-07T10:55:23.359Z,1005.64
2018-02-07T10:56:23.288Z,1005.68
2018-02-07T10:57:23.256Z,1005.7
2018-02-07T10:58:23.230Z,1005.7
2018-02-07T10:59:23.190Z,1005.74
2018-02-07T11:00:23.159Z,1005.78
2018-02-07T11:01:23.127Z,1005.81
2018-02-07T11:02:23.096Z,1005.82
2018-02-07T11:03:23.064Z,1005.81
2018-02-07T11:04:23.031Z,1005.87
2018-02-07T11:05:23.002Z,1005.8
2018-02-07T11:06:22.967Z,1005.82
2018-02-07T11:07:22.938Z,1005.79
2018-02-07T11:08:22.905Z,1005.81
2018-02-07T11:09:22.873Z,1005.79
2018-02-07T11:10:22.842Z,1005.77
2018-02-07T11:11:22.910Z,1005.8
2018-02-07T11:12:22.779Z,1005.8
2018-02-07T11:13:22.746Z,1005.8
2018-02-07T11:14:22.716Z,1005.81
2018-02-07T11:15:22.683Z,1005.82
2018-02-07T11:16:22.651Z,1005.82
2018-02-07T11:17:22.620Z,1005.81
2018-02-07T11:18:22.589Z,1005.79
2018-02-07T11:19:22.557Z,1005.84
2018-02-07T11:20:22.524Z,1005.86
2018-02-07T11:21:22.494Z,1005.86
2018-02-07T11:22:22.462Z,1005.85
2018-02-07T11:23:22.431Z,1005.85
2018-02-07T11:24:22.398Z,1005.87
2018-02-07T11:25:22.368Z,1005.87
2018-02-07T11:26:22.336Z,1005.89
2018-02-07T11:27:22.304Z,1005.92
2018-02-07T11:28:22.275Z,1005.89
2018-02-07T11:29:22.243Z,1005.88
2018-02-07T11:30:22.212Z,1005.89
2018-02-07T11:31:22.179Z,1005.96
2018-02-07T11:32:22.147Z,1005.88
2018-02-07T11:33:22.116Z,1005.92
2018-02-07T11:34:22.085Z,1005.96
2018-02-07T11:35:22.053Z,1005.94
2018-02-07T11:36:22.022Z,1005.92
2018-02-07T11:37:21.990Z,1005.9
2018-02-07T11:38:21.960Z,1005.91
2018-02-07T11:39:21.927Z,1005.86
2018-02-07T11:40:21.897Z,1005.85
2018-02-07T11:41:21.866Z,1005.88
2018-02-07T11:42:21.833Z,1005.94
2018-02-07T11:43:21.802Z,1005.9
2018-02-07T11:44:21.772Z,1005.91
2018-02-07T11:45:21.741Z,1005.84
2018-02-07T11:46:21.708Z,1005.89
2018-02-07T11:47:21.679Z,1005.84
2018-02-07T11:48:21.647Z,1005.83
2018-02-07T11:49:21.617Z,1005.88
2018-02-07T11:50:21.585Z,1005.89
2018-02-07T11:51:21.555Z,1005.93
2018-02-07T11:52:21.524Z,1005.85
2018-02-07T11:53:21.588Z,1005.83
2018-02-07T11:54:21.462Z,1005.88
2018-02-07T11:55:21.432Z,1005.86
2018-02-07T11:56:21.403Z,1005.85
2018-02-07T11:57:21.369Z,1005.87
2018-02-07T11:58:21.340Z,1005.86
2018-02-07T11:59:21.309Z,1005.9
2018-02-07T12:00:21.279Z,1005.9
2018-02-07T12:01:21.248Z,1005.97
2018-02-07T12:02:21.218Z,1005.88
2018-02-07T12:03:21.187Z,1005.91
2018-02-07T12:04:21.156Z,1005.85
2018-02-07T12:05:21.127Z,1005.91
2018-02-07T12:06:21.095Z,1005.88
2018-02-07T12:07:21.064Z,1005.83
2018-02-07T12:08:21.033Z,1005.89